createdAt,value
2019-03-31T00:00:29.512Z,100881.66
2019-03-31T00:02:57.916Z,100879.79
2019-03-31T00:05:26.328Z,100879.42
2019-03-31T00:07:54.762Z,100878.92
2019-03-31T00:10:23.229Z,100875.85
2019-03-31T00:12:51.632Z,100872.75
2019-03-31T00:15:20.068Z,100875.48
2019-03-31T00:17:48.487Z,100875.64
2019-03-31T00:20:16.908Z,100874.10
2019-03-31T00:22:45.365Z,100879.56
2019-03-31T00:25:13.860Z,100883.02
2019-03-31T00:27:42.267Z,100885.38
2019-03-31T00:30:10.972Z,100880.06
2019-03-31T00:32:39.416Z,100882.30
2019-03-31T00:35:08.004Z,100884.01
2019-03-31T00:37:36.446Z,100883.67
2019-03-31T00:40:06.507Z,100885.04
2019-03-31T00:42:34.976Z,100886.03
2019-03-31T00:45:04.077Z,100884.83
2019-03-31T00:47:32.485Z,100887.23
2019-03-31T00:50:00.928Z,100884.49
2019-03-31T00:52:29.344Z,100882.26
2019-03-31T00:54:57.788Z,100885.36
2019-03-31T00:57:26.197Z,100884.49
2019-03-31T00:59:54.640Z,100887.72
2019-03-31T01:02:24.706Z,100886.48
2019-03-31T01:07:23.548Z,100884.28
2019-03-31T01:09:53.552Z,100885.28
2019-03-31T01:12:23.765Z,100883.91
2019-03-31T01:14:52.196Z,100879.48
2019-03-31T01:17:20.636Z,100882.20
2019-03-31T01:19:49.355Z,100880.84
2019-03-31T01:22:17.788Z,100880.50
2019-03-31T01:24:46.222Z,100872.80
2019-03-31T01:27:14.651Z,100864.59
2019-03-31T01:29:43.296Z,100867.49
2019-03-31T01:32:12.038Z,100869.20
2019-03-31T01:34:40.557Z,100870.73
2019-03-31T01:37:10.273Z,100874.33
2019-03-31T01:39:38.715Z,100872.96
2019-03-31T01:42:07.789Z,100873.12
2019-03-31T01:44:36.225Z,100873.12
2019-03-31T01:47:05.467Z,100873.78
2019-03-31T01:49:33.886Z,100871.42
2019-03-31T01:52:02.330Z,100872.08
2019-03-31T01:54:30.902Z,100870.22
2019-03-31T01:56:59.327Z,100877.55
2019-03-31T01:59:27.758Z,100875.31
2019-03-31T02:02:03.988Z,100878.05
2019-03-31T02:04:27.083Z,100883.17
2019-03-31T02:06:55.513Z,100879.73
2019-03-31T02:09:24.025Z,100888.96
2019-03-31T02:11:52.452Z,100876.29
2019-03-31T02:14:20.905Z,100883.12
2019-03-31T02:16:49.353Z,100875.08
2019-03-31T02:19:17.798Z,100880.70
2019-03-31T02:21:46.225Z,100880.22
2019-03-31T02:24:14.629Z,100883.44
2019-03-31T02:26:43.088Z,100881.73
2019-03-31T02:29:11.495Z,100882.08
2019-03-31T02:31:39.916Z,100879.88
2019-03-31T02:34:08.355Z,100880.53
2019-03-31T02:36:36.794Z,100877.30
2019-03-31T02:39:05.901Z,100883.11
2019-03-31T02:41:34.535Z,100877.80
2019-03-31T02:44:02.992Z,100880.19
2019-03-31T02:46:31.383Z,100870.63
2019-03-31T02:48:59.802Z,100876.59
2019-03-31T02:51:28.413Z,100873.52
2019-03-31T02:53:56.877Z,100871.78
2019-03-31T02:56:26.349Z,100864.45
2019-03-31T02:58:55.428Z,100867.69
2019-03-31T03:01:26.074Z,100857.78
2019-03-31T03:03:55.761Z,100862.54
2019-03-31T03:06:25.715Z,100863.91
2019-03-31T03:08:56.910Z,100860.34
2019-03-31T03:11:26.659Z,100856.73
2019-03-31T03:13:56.617Z,100862.20
2019-03-31T03:16:25.023Z,100866.30
2019-03-31T03:18:53.481Z,100863.02
2019-03-31T03:21:24.559Z,100861.86
2019-03-31T03:23:52.438Z,100868.33
2019-03-31T03:26:20.955Z,100864.39
2019-03-31T03:28:49.429Z,100867.45
2019-03-31T03:31:17.933Z,100865.75
2019-03-31T03:33:46.433Z,100870.34
2019-03-31T03:36:15.429Z,100874.11
2019-03-31T03:38:43.921Z,100875.81
2019-03-31T03:41:12.362Z,100874.98
2019-03-31T03:43:54.889Z,100870.34
2019-03-31T03:46:11.085Z,100873.77
2019-03-31T03:48:39.595Z,100871.37
2019-03-31T03:51:08.055Z,100867.44
2019-03-31T03:53:36.427Z,100871.04
2019-03-31T03:56:04.924Z,100867.75
2019-03-31T03:58:33.349Z,100870.98
2019-03-31T04:01:02.201Z,100871.85
2019-03-31T04:03:31.270Z,100871.85
2019-03-31T04:05:59.825Z,100870.98
2019-03-31T04:08:28.232Z,100875.61
2019-03-31T04:11:08.489Z,100871.52
2019-03-31T04:13:36.927Z,100869.28
2019-03-31T04:16:05.343Z,100868.07
2019-03-31T04:18:33.760Z,100869.94
2019-03-31T04:21:02.207Z,100869.59
2019-03-31T04:23:30.619Z,100871.13
2019-03-31T04:25:59.061Z,100871.98
2019-03-31T04:28:27.487Z,100872.15
2019-03-31T04:30:55.919Z,100868.21
2019-03-31T04:33:24.345Z,100878.61
2019-03-31T04:35:52.783Z,100875.70
2019-03-31T04:38:21.230Z,100872.09
2019-03-31T04:40:49.663Z,100873.46
2019-03-31T04:43:18.087Z,100876.20
2019-03-31T04:45:46.509Z,100873.12
2019-03-31T04:48:14.920Z,100875.14
2019-03-31T04:50:43.686Z,100873.12
2019-03-31T04:53:12.138Z,100877.37
2019-03-31T04:55:40.537Z,100880.94
2019-03-31T04:58:08.957Z,100881.11
2019-03-31T05:00:37.391Z,100884.37
2019-03-31T05:03:05.809Z,100887.94
2019-03-31T05:05:34.241Z,100887.09
2019-03-31T05:08:02.656Z,100880.27
2019-03-31T05:10:31.093Z,100883.99
2019-03-31T05:12:59.487Z,100881.27
2019-03-31T05:15:27.953Z,100894.58
2019-03-31T05:17:56.386Z,100894.58
2019-03-31T05:20:24.815Z,100894.08
2019-03-31T05:22:53.229Z,100880.58
2019-03-31T05:25:21.649Z,100896.81
2019-03-31T05:27:50.071Z,100889.98
2019-03-31T05:30:18.489Z,100897.16
2019-03-31T05:32:46.935Z,100903.64
2019-03-31T05:35:15.353Z,100898.18
2019-03-31T05:37:50.940Z,100907.58
2019-03-31T05:40:14.177Z,100911.15
2019-03-31T05:42:42.591Z,100905.34
2019-03-31T05:45:11.150Z,100902.95
2019-03-31T05:47:39.554Z,100904.70
2019-03-31T05:50:08.335Z,100908.26
2019-03-31T05:52:36.737Z,100901.43
2019-03-31T05:55:06.614Z,100899.56
2019-03-31T05:57:35.051Z,100907.11
2019-03-31T06:00:05.029Z,100906.08
2019-03-31T06:02:33.431Z,100908.66
2019-03-31T06:05:01.850Z,100908.50
2019-03-31T06:07:30.285Z,100904.78
2019-03-31T06:09:58.700Z,100905.98
2019-03-31T06:12:27.128Z,100909.23
2019-03-31T06:14:55.531Z,100912.86
2019-03-31T06:17:23.987Z,100913.47
2019-03-31T06:19:52.388Z,100918.30
2019-03-31T06:22:20.799Z,100919.69
2019-03-31T06:24:49.218Z,100919.36
2019-03-31T06:27:17.643Z,100917.52
2019-03-31T06:29:46.044Z,100924.58
2019-03-31T06:32:14.484Z,100919.00
2019-03-31T06:34:47.664Z,100915.29
2019-03-31T06:37:13.062Z,100913.60
2019-03-31T06:39:41.469Z,100917.75
2019-03-31T06:42:09.898Z,100924.10
2019-03-31T06:44:38.395Z,100926.19
2019-03-31T06:47:06.816Z,100927.07
2019-03-31T06:49:35.229Z,100922.81
2019-03-31T06:52:03.720Z,100928.01
2019-03-31T06:54:32.156Z,100929.06
2019-03-31T06:57:00.570Z,100926.88
2019-03-31T06:59:29.008Z,100927.79
2019-03-31T07:01:57.430Z,100930.91
2019-03-31T07:04:25.865Z,100930.48
2019-03-31T07:06:54.288Z,100927.59
2019-03-31T07:09:22.720Z,100926.78
2019-03-31T07:11:51.142Z,100926.28
2019-03-31T07:14:19.564Z,100919.97
2019-03-31T07:16:48.120Z,100925.64
2019-03-31T07:19:16.534Z,100930.98
2019-03-31T07:21:44.942Z,100926.53
2019-03-31T07:24:13.464Z,100929.83
2019-03-31T07:26:41.896Z,100926.59
2019-03-31T07:29:10.412Z,100928.33
2019-03-31T07:31:38.833Z,100933.28
2019-03-31T07:34:07.233Z,100930.56
2019-03-31T07:36:35.685Z,100927.14
2019-03-31T07:39:06.107Z,100928.16
2019-03-31T07:41:35.599Z,100924.72
2019-03-31T07:44:03.975Z,100931.08
2019-03-31T07:46:32.422Z,100929.52
2019-03-31T07:49:00.830Z,100929.69
2019-03-31T07:51:29.261Z,100922.84
2019-03-31T07:53:57.716Z,100930.38
2019-03-31T07:56:26.119Z,100934.66
2019-03-31T07:58:54.555Z,100928.31
2019-03-31T08:01:22.966Z,100929.16
2019-03-31T08:03:51.380Z,100926.39
2019-03-31T08:06:19.790Z,100927.41
2019-03-31T08:08:48.207Z,100927.09
2019-03-31T08:11:17.302Z,100927.94
2019-03-31T08:13:45.758Z,100926.39
2019-03-31T08:16:14.257Z,100926.36
2019-03-31T08:18:42.676Z,100934.06
2019-03-31T08:21:11.129Z,100941.77
2019-03-31T08:23:39.553Z,100937.12
2019-03-31T08:26:07.992Z,100939.00
2019-03-31T08:28:36.408Z,100943.27
2019-03-31T08:31:04.836Z,100944.47
2019-03-31T08:33:33.301Z,100946.21
2019-03-31T08:36:01.701Z,100951.17
2019-03-31T08:38:30.138Z,100947.53
2019-03-31T08:40:58.584Z,100947.86
2019-03-31T08:43:27.022Z,100949.23
2019-03-31T08:45:55.441Z,100950.72
2019-03-31T08:48:23.877Z,100947.79
2019-03-31T08:50:52.304Z,100948.08
2019-03-31T08:53:20.715Z,100952.52
2019-03-31T08:55:49.152Z,100950.78
2019-03-31T08:58:17.589Z,100949.92
2019-03-31T09:00:50.106Z,100954.50
2019-03-31T09:03:18.498Z,100953.62
2019-03-31T09:06:00.696Z,100945.52
2019-03-31T09:08:17.057Z,100947.22
2019-03-31T09:10:45.499Z,100947.53
2019-03-31T09:13:13.929Z,100949.55
2019-03-31T09:15:42.345Z,100945.60
2019-03-31T09:18:10.807Z,100953.30
2019-03-31T09:20:39.229Z,100937.95
2019-03-31T09:23:07.665Z,100936.75
2019-03-31T09:25:36.172Z,100936.02
2019-03-31T09:28:04.620Z,100943.89
2019-03-31T09:30:33.109Z,100933.89
2019-03-31T09:33:01.519Z,100933.52
2019-03-31T09:35:30.025Z,100930.20
2019-03-31T09:37:58.449Z,100941.33
2019-03-31T09:40:26.863Z,100940.11
2019-03-31T09:42:55.313Z,100943.67
2019-03-31T09:45:23.731Z,100936.62
2019-03-31T09:47:52.161Z,100928.11
2019-03-31T09:50:21.016Z,100927.59
2019-03-31T09:52:49.449Z,100927.92
2019-03-31T09:55:17.923Z,100921.77
2019-03-31T09:57:46.371Z,100924.82
2019-03-31T10:00:17.343Z,100923.55
2019-03-31T10:02:45.897Z,100927.11
2019-03-31T10:05:14.569Z,100921.22
2019-03-31T10:07:43.055Z,100915.66
2019-03-31T10:10:17.361Z,100912.88
2019-03-31T10:12:45.769Z,100910.73
2019-03-31T10:15:14.241Z,100907.30
2019-03-31T10:17:42.648Z,100899.72
2019-03-31T10:20:11.103Z,100900.36
2019-03-31T10:22:39.511Z,100894.75
2019-03-31T10:25:08.092Z,100892.80
2019-03-31T10:27:36.526Z,100894.61
2019-03-31T10:30:06.703Z,100894.10
2019-03-31T10:32:35.151Z,100890.73
2019-03-31T10:35:04.549Z,100889.00
2019-03-31T10:37:32.967Z,100882.00
2019-03-31T10:40:01.405Z,100888.70
2019-03-31T10:42:29.824Z,100884.45
2019-03-31T10:44:58.256Z,100882.17
2019-03-31T10:47:26.661Z,100881.12
2019-03-31T10:49:55.107Z,100877.68
2019-03-31T10:52:23.568Z,100878.23
2019-03-31T10:54:51.981Z,100882.65
2019-03-31T10:57:20.413Z,100872.56
2019-03-31T10:59:48.826Z,100865.66
2019-03-31T11:02:17.242Z,100868.89
2019-03-31T11:04:45.722Z,100863.05
2019-03-31T11:07:14.163Z,100861.59
2019-03-31T11:09:42.582Z,100863.14
2019-03-31T11:12:11.052Z,100863.20
2019-03-31T11:14:39.473Z,100857.44
2019-03-31T11:17:07.931Z,100860.25
2019-03-31T11:19:36.342Z,100861.69
2019-03-31T11:22:06.419Z,100858.41
2019-03-31T11:24:34.854Z,100851.97
2019-03-31T11:27:03.272Z,100853.70
2019-03-31T11:29:31.703Z,100855.51
2019-03-31T11:32:00.137Z,100856.80
2019-03-31T11:34:28.560Z,100858.64
2019-03-31T11:36:57.006Z,100856.55
2019-03-31T11:39:25.471Z,100850.22
2019-03-31T11:41:53.909Z,100851.55
2019-03-31T11:44:22.311Z,100854.30
2019-03-31T11:46:50.764Z,100845.46
2019-03-31T11:49:19.220Z,100846.89
2019-03-31T11:51:47.632Z,100841.77
2019-03-31T11:54:16.039Z,100837.78
2019-03-31T11:56:44.498Z,100836.70
2019-03-31T11:59:13.185Z,100835.61
2019-03-31T12:01:41.597Z,100833.27
2019-03-31T12:04:10.036Z,100829.20
2019-03-31T12:06:38.610Z,100836.86
2019-03-31T12:09:07.511Z,100826.70
2019-03-31T12:11:35.940Z,100824.08
2019-03-31T12:14:04.922Z,100818.80
2019-03-31T12:16:33.335Z,100820.25
2019-03-31T12:19:01.762Z,100814.06
2019-03-31T12:21:30.274Z,100810.48
2019-03-31T12:23:58.705Z,100812.57
2019-03-31T12:26:27.154Z,100808.48
2019-03-31T12:28:55.600Z,100798.76
2019-03-31T12:31:24.015Z,100801.69
2019-03-31T12:33:52.455Z,100791.84
2019-03-31T12:36:21.407Z,100800.89
2019-03-31T12:38:49.875Z,100794.01
2019-03-31T12:41:18.260Z,100793.54
2019-03-31T12:43:46.694Z,100792.31
2019-03-31T12:46:15.106Z,100792.75
2019-03-31T12:48:44.228Z,100786.53
2019-03-31T12:51:12.670Z,100789.20
2019-03-31T12:53:41.113Z,100791.80
2019-03-31T12:56:09.521Z,100789.26
2019-03-31T12:58:37.981Z,100779.83
2019-03-31T13:01:06.413Z,100781.48
2019-03-31T13:03:34.829Z,100774.98
2019-03-31T13:06:03.275Z,100768.73
2019-03-31T13:08:31.694Z,100767.88
2019-03-31T13:11:00.135Z,100769.53
2019-03-31T13:13:28.614Z,100758.38
2019-03-31T13:15:57.049Z,100758.50
2019-03-31T13:18:27.973Z,100751.41
2019-03-31T13:20:55.804Z,100760.33
2019-03-31T13:23:24.222Z,100753.45
2019-03-31T13:25:52.670Z,100755.09
2019-03-31T13:28:21.087Z,100755.61
2019-03-31T13:30:49.515Z,100749.66
2019-03-31T13:33:17.918Z,100748.07
2019-03-31T13:35:46.429Z,100751.33
2019-03-31T13:38:14.834Z,100743.51
2019-03-31T13:40:43.244Z,100739.91
2019-03-31T13:43:11.774Z,100736.86
2019-03-31T13:45:40.202Z,100737.42
2019-03-31T13:48:08.624Z,100734.23
2019-03-31T13:50:37.019Z,100733.42
2019-03-31T13:53:05.513Z,100725.56
2019-03-31T13:55:33.929Z,100725.44
2019-03-31T13:58:03.567Z,100723.23
2019-03-31T14:00:40.775Z,100722.61
2019-03-31T14:03:09.485Z,100726.91
2019-03-31T14:05:37.973Z,100715.94
2019-03-31T14:08:06.654Z,100708.39
2019-03-31T14:10:35.248Z,100700.69
2019-03-31T14:13:04.535Z,100701.52
2019-03-31T14:15:32.945Z,100696.39
2019-03-31T14:18:01.431Z,100699.38
2019-03-31T14:20:29.870Z,100701.44
2019-03-31T14:22:58.288Z,100705.44
2019-03-31T14:25:26.778Z,100706.53
2019-03-31T14:27:55.318Z,100705.02
2019-03-31T14:30:23.898Z,100692.31
2019-03-31T14:32:52.346Z,100697.12
2019-03-31T14:35:20.766Z,100696.84
2019-03-31T14:37:49.205Z,100698.25
2019-03-31T14:40:17.640Z,100702.38
2019-03-31T14:42:46.110Z,100702.05
2019-03-31T14:45:17.560Z,100696.23
2019-03-31T14:47:46.010Z,100692.66
2019-03-31T14:50:17.479Z,100691.30
2019-03-31T14:52:45.908Z,100687.03
2019-03-31T14:55:14.343Z,100685.70
2019-03-31T14:57:42.758Z,100682.95
2019-03-31T15:00:15.248Z,100680.75
2019-03-31T15:02:41.693Z,100682.81
2019-03-31T15:05:10.309Z,100683.82
2019-03-31T15:07:38.768Z,100690.20
2019-03-31T15:10:07.386Z,100692.73
2019-03-31T15:12:35.799Z,100689.16
2019-03-31T15:15:05.273Z,100690.20
2019-03-31T15:17:33.759Z,100688.45
2019-03-31T15:20:02.187Z,100685.05
2019-03-31T15:22:30.623Z,100685.38
2019-03-31T15:24:59.039Z,100680.25
2019-03-31T15:27:27.463Z,100681.80
2019-03-31T15:29:55.893Z,100685.59
2019-03-31T15:32:24.334Z,100682.34
2019-03-31T15:34:52.772Z,100680.97
2019-03-31T15:37:21.190Z,100674.80
2019-03-31T15:39:49.612Z,100682.16
2019-03-31T15:42:18.063Z,100679.59
2019-03-31T15:44:46.478Z,100685.08
2019-03-31T15:47:14.907Z,100683.89
2019-03-31T15:49:43.332Z,100681.33
2019-03-31T15:52:11.780Z,100683.23
2019-03-31T15:54:40.207Z,100680.67
2019-03-31T15:57:08.638Z,100678.97
2019-03-31T15:59:37.056Z,100676.91
2019-03-31T16:02:05.535Z,100679.83
2019-03-31T16:04:33.979Z,100677.59
2019-03-31T16:07:02.423Z,100677.77
2019-03-31T16:09:30.867Z,100672.47
2019-03-31T16:11:59.349Z,100676.94
2019-03-31T16:14:27.750Z,100683.62
2019-03-31T16:16:56.200Z,100674.88
2019-03-31T16:19:24.648Z,100679.50
2019-03-31T16:21:53.050Z,100670.95
2019-03-31T16:24:23.140Z,100669.25
2019-03-31T16:26:53.061Z,100669.08
2019-03-31T16:29:21.535Z,100671.45
2019-03-31T16:31:49.987Z,100675.56
2019-03-31T16:34:18.402Z,100671.45
2019-03-31T16:36:46.938Z,100664.27
2019-03-31T16:39:15.378Z,100670.98
2019-03-31T16:41:43.814Z,100667.37
2019-03-31T16:44:12.234Z,100668.59
2019-03-31T16:46:40.690Z,100667.73
2019-03-31T16:49:09.121Z,100667.40
2019-03-31T16:51:37.564Z,100672.52
2019-03-31T16:54:06.545Z,100670.14
2019-03-31T16:56:35.031Z,100674.58
2019-03-31T16:59:03.468Z,100671.51
2019-03-31T17:01:31.958Z,100671.51
2019-03-31T17:04:00.400Z,100686.08
2019-03-31T17:06:28.843Z,100692.06
2019-03-31T17:08:57.278Z,100686.25
2019-03-31T17:11:25.687Z,100693.44
2019-03-31T17:13:54.122Z,100694.48
2019-03-31T17:16:22.544Z,100704.75
2019-03-31T17:18:50.993Z,100703.38
2019-03-31T17:21:19.422Z,100705.97
2019-03-31T17:23:47.852Z,100705.45
2019-03-31T17:26:16.328Z,100707.33
2019-03-31T17:28:44.833Z,100708.55
2019-03-31T17:31:13.263Z,100710.78
2019-03-31T17:33:41.734Z,100716.44
2019-03-31T17:36:10.174Z,100718.99
2019-03-31T17:38:38.610Z,100713.19
2019-03-31T17:41:07.048Z,100718.30
2019-03-31T17:43:35.492Z,100719.84
2019-03-31T17:46:04.106Z,100728.42
2019-03-31T17:48:32.501Z,100727.36
2019-03-31T17:51:00.957Z,100727.38
2019-03-31T17:53:29.404Z,100732.34
2019-03-31T17:55:57.831Z,100733.38
2019-03-31T17:58:26.290Z,100732.36
2019-03-31T18:00:54.704Z,100736.28
2019-03-31T18:03:23.149Z,100739.73
2019-03-31T18:05:51.594Z,100735.97
2019-03-31T18:08:20.000Z,100736.64
2019-03-31T18:10:48.444Z,100747.27
2019-03-31T18:13:16.869Z,100746.57
2019-03-31T18:15:45.299Z,100747.61
2019-03-31T18:18:13.716Z,100753.77
2019-03-31T18:20:42.171Z,100754.11
2019-03-31T18:23:10.607Z,100758.39
2019-03-31T18:25:39.049Z,100767.61
2019-03-31T18:28:07.550Z,100763.34
2019-03-31T18:30:35.996Z,100767.62
2019-03-31T18:33:04.480Z,100770.53
2019-03-31T18:35:32.928Z,100772.23
2019-03-31T18:38:01.349Z,100780.29
2019-03-31T18:40:35.222Z,100781.30
2019-03-31T18:42:59.989Z,100782.16
2019-03-31T18:45:28.419Z,100781.13
2019-03-31T18:47:56.847Z,100786.78
2019-03-31T18:50:25.253Z,100787.95
2019-03-31T18:52:53.756Z,100791.39
2019-03-31T18:55:23.813Z,100795.67
2019-03-31T18:58:10.323Z,100798.04
2019-03-31T19:00:43.428Z,100805.59
2019-03-31T19:03:13.477Z,100811.23
2019-03-31T19:06:00.075Z,100818.08
2019-03-31T19:08:42.283Z,100811.57
2019-03-31T19:11:14.856Z,100821.45
2019-03-31T19:13:55.217Z,100825.22
2019-03-31T19:16:37.404Z,100821.29
2019-03-31T19:19:13.703Z,100826.43
2019-03-31T19:21:53.035Z,100830.30
2019-03-31T19:24:26.296Z,100832.70
2019-03-31T19:27:08.241Z,100837.84
2019-03-31T19:29:53.361Z,100839.88
2019-03-31T19:32:23.437Z,100844.31
2019-03-31T19:35:02.264Z,100842.95
2019-03-31T19:37:35.058Z,100852.20
2019-03-31T19:40:14.843Z,100856.47
2019-03-31T19:42:59.945Z,100856.63
2019-03-31T19:45:38.857Z,100865.84
2019-03-31T19:48:08.944Z,100862.77
2019-03-31T19:50:57.447Z,100862.41
2019-03-31T19:53:45.363Z,100862.06
2019-03-31T19:56:21.307Z,100869.08
2019-03-31T19:59:06.463Z,100867.54
2019-03-31T20:01:42.482Z,100876.75
2019-03-31T20:04:30.901Z,100872.31
2019-03-31T20:07:03.418Z,100869.91
2019-03-31T20:09:39.624Z,100876.58
2019-03-31T20:12:18.451Z,100877.77
2019-03-31T20:14:54.306Z,100885.98
2019-03-31T20:17:36.418Z,100886.14
2019-03-31T20:20:10.848Z,100886.64
2019-03-31T20:22:44.989Z,100890.91
2019-03-31T20:25:21.848Z,100894.64
2019-03-31T20:28:01.085Z,100903.39
2019-03-31T20:30:37.461Z,100907.98
2019-03-31T20:33:22.600Z,100899.77
2019-03-31T20:35:55.406Z,100912.92
2019-03-31T20:38:34.027Z,100915.32
2019-03-31T20:41:09.781Z,100907.77
2019-03-31T20:43:42.831Z,100918.37
2019-03-31T20:46:11.261Z,100916.14
2019-03-31T20:48:39.664Z,100915.63
2019-03-31T20:51:08.115Z,100912.89
2019-03-31T20:53:36.526Z,100911.33
2019-03-31T20:56:05.159Z,100914.59
2019-03-31T20:58:33.607Z,100912.52
2019-03-31T21:01:02.011Z,100914.87
2019-03-31T21:03:30.438Z,100916.78
2019-03-31T21:05:59.857Z,100916.41
2019-03-31T21:08:28.286Z,100920.52
2019-03-31T21:10:56.973Z,100928.87
2019-03-31T21:13:25.963Z,100930.07
2019-03-31T21:15:54.450Z,100931.59
2019-03-31T21:18:22.878Z,100937.94
2019-03-31T21:20:51.316Z,100938.10
2019-03-31T21:23:19.750Z,100940.46
2019-03-31T21:25:48.186Z,100952.27
2019-03-31T21:28:16.615Z,100953.30
2019-03-31T21:30:45.023Z,100945.59
2019-03-31T21:33:13.473Z,100948.83
2019-03-31T21:35:41.883Z,100954.12
2019-03-31T21:38:10.326Z,100955.15
2019-03-31T21:40:38.788Z,100956.14
2019-03-31T21:43:07.209Z,100954.78
2019-03-31T21:45:35.617Z,100962.14
2019-03-31T21:48:04.094Z,100957.67
2019-03-31T21:50:32.548Z,100955.09
2019-03-31T21:53:00.960Z,100956.47
2019-03-31T21:55:29.391Z,100958.48
2019-03-31T21:57:57.799Z,100950.45
2019-03-31T22:00:28.119Z,100954.70
2019-03-31T22:02:56.554Z,100963.28
2019-03-31T22:05:24.992Z,100962.91
2019-03-31T22:07:53.398Z,100958.94
2019-03-31T22:10:21.840Z,100961.49
2019-03-31T22:12:50.290Z,100958.75
2019-03-31T22:15:18.797Z,100957.05
2019-03-31T22:17:47.215Z,100961.16
2019-03-31T22:20:15.629Z,100960.62
2019-03-31T22:22:44.074Z,100957.55
2019-03-31T22:25:12.500Z,100957.70
2019-03-31T22:27:40.952Z,100960.44
2019-03-31T22:30:09.837Z,100960.44
2019-03-31T22:32:38.270Z,100962.46
2019-03-31T22:35:06.932Z,100963.48
2019-03-31T22:37:35.365Z,100964.52
2019-03-31T22:40:05.055Z,100962.78
2019-03-31T22:42:33.503Z,100970.98
2019-03-31T22:45:01.932Z,100967.41
2019-03-31T22:47:30.360Z,100965.17
2019-03-31T22:49:58.816Z,100968.91
2019-03-31T22:52:27.234Z,100959.16
2019-03-31T22:54:55.658Z,100962.39
2019-03-31T22:57:24.272Z,100960.19
2019-03-31T22:59:52.698Z,100957.61
2019-03-31T23:02:21.110Z,100961.18
2019-03-31T23:04:49.558Z,100962.70
2019-03-31T23:07:17.956Z,100958.27
2019-03-31T23:09:46.396Z,100961.87
2019-03-31T23:12:14.885Z,100956.56
2019-03-31T23:14:43.320Z,100958.08
2019-03-31T23:17:11.832Z,100957.22
2019-03-31T23:19:40.282Z,100966.13
2019-03-31T23:22:08.730Z,100957.22
2019-03-31T23:24:37.154Z,100959.61
2019-03-31T23:27:05.565Z,100958.24
2019-03-31T23:29:34.012Z,100963.86
2019-03-31T23:32:02.454Z,100961.29
2019-03-31T23:34:30.846Z,100959.55
2019-03-31T23:36:59.306Z,100952.88
2019-03-31T23:39:27.720Z,100954.90
2019-03-31T23:41:56.158Z,100948.06
2019-03-31T23:44:24.582Z,100945.48
2019-03-31T23:46:53.020Z,100954.72
2019-03-31T23:49:21.437Z,100950.62
2019-03-31T23:51:49.944Z,100956.23
2019-03-31T23:54:18.379Z,100944.44
2019-03-31T23:56:46.808Z,100949.07
2019-03-31T23:59:15.258Z,100945.13
